Time;durP1;ratioP1;P1;durP2;ratioP2;P2;SDS_P1;SDS_P2;PMS_P1;PMS_P2;Temp;Humidity;BMP_temperature;BMP_pressure;BME280_temperature;BME280_humidity;BME280_pressure;Samples;Min_cycle;Max_cycle;Signal;HPM_P1;HPM_P2
2021/04/18 04:31:26;;;;;;;33.65;23.35;;;;;;;6.81;69.24;100468.63;5335944;26;20060;-87
2021/04/18 04:34:02;;;;;;;33.22;23.25;;;;;;;7.08;68.19;100465.41;5342575;26;20072;-88
2021/04/18 04:36:28;;;;;;;34.40;23.98;;;;;;;6.96;68.71;100463.53;5322521;26;20440;-87
2021/04/18 04:38:54;;;;;;;36.85;24.30;;;;;;;7.23;67.73;100470.75;5322587;26;20070;-88
2021/04/18 04:41:21;;;;;;;34.13;26.37;;;;;;;7.19;68.39;100470.72;5322802;26;20094;-88
2021/04/18 04:43:47;;;;;;;35.03;23.92;;;;;;;7.60;66.43;100470.19;5342372;26;20076;-88
2021/04/18 04:46:14;;;;;;;33.10;24.35;;;;;;;7.82;65.53;100473.81;5322583;26;20078;-87
2021/04/18 04:48:41;;;;;;;31.95;23.67;;;;;;;7.81;65.40;100472.97;5322456;26;20060;-86
2021/04/18 04:51:08;;;;;;;32.50;24.73;;;;;;;7.78;66.03;100485.16;5342448;26;20056;-85
2021/04/18 04:53:34;;;;;;;37.22;26.45;;;;;;;7.45;66.79;100470.97;5322292;26;20069;-87
2021/04/18 04:56:02;;;;;;;37.38;25.48;;;;;;;7.50;66.97;100483.22;5342508;26;20079;-87
2021/04/18 04:58:29;;;;;;;34.60;24.73;;;;;;;7.86;65.88;100480.84;5342029;26;20056;-87
2021/04/18 05:23:52;;;;;;;34.88;26.75;;;;;;;8.82;62.20;100491.81;5309406;26;20057;-86
2021/04/18 05:26:27;;;;;;;32.88;25.12;;;;;;;8.92;62.20;100497.94;5342524;26;20075;-85
2021/04/18 05:28:55;;;;;;;34.00;25.73;;;;;;;9.00;61.99;100492.69;5342333;26;20074;-85
2021/04/18 05:31:22;;;;;;;37.42;27.37;;;;;;;8.62;62.67;100501.34;5342282;26;20111;-86
2021/04/18 05:33:48;;;;;;;36.42;26.73;;;;;;;9.12;61.31;100503.25;5336399;26;149692;-85
2021/04/18 05:36:15;;;;;;;34.55;26.45;;;;;;;9.35;60.50;100505.00;5322312;26;20068;-85
2021/04/18 05:38:42;;;;;;;37.25;25.55;;;;;;;8.98;61.52;100510.19;5322061;26;20072;-85
2021/04/18 05:41:08;;;;;;;36.50;25.90;;;;;;;9.38;60.10;100510.25;5342392;26;20048;-85
2021/04/18 05:43:35;;;;;;;34.47;26.45;;;;;;;9.14;61.05;100517.19;5322078;26;20078;-85
2021/04/18 05:46:03;;;;;;;33.60;25.85;;;;;;;9.16;60.75;100522.47;5342484;26;20119;-85
2021/04/18 05:48:29;;;;;;;35.78;26.25;;;;;;;9.40;59.79;100516.38;5322200;26;20100;-84
2021/04/18 05:50:56;;;;;;;36.40;26.27;;;;;;;9.33;60.53;100519.00;5342161;26;20044;-85
2021/04/18 05:53:23;;;;;;;33.90;25.80;;;;;;;8.66;62.60;100524.06;5322170;26;20387;-85
2021/04/18 05:55:49;;;;;;;35.38;26.30;;;;;;;8.64;63.24;100520.53;5341806;26;20074;-86
2021/04/18 05:58:24;;;;;;;39.83;29.77;;;;;;;8.66;63.19;100528.41;5342419;26;20345;-87
2021/04/18 06:00:51;;;;;;;39.90;29.95;;;;;;;9.32;61.28;100525.13;5342322;26;20068;-87
2021/04/18 06:03:17;;;;;;;37.30;29.48;;;;;;;8.74;62.72;100530.19;5342328;26;20437;-87
2021/04/18 06:05:44;;;;;;;34.67;26.15;;;;;;;8.11;65.17;100524.59;5342248;26;20075;-87
2021/04/18 06:08:11;;;;;;;35.08;26.35;;;;;;;7.97;65.25;100521.91;5342240;26;20113;-87
2021/04/18 06:10:37;;;;;;;36.33;27.87;;;;;;;8.35;64.41;100523.00;5322264;26;20072;-87
2021/04/18 06:13:04;;;;;;;38.08;27.98;;;;;;;8.66;63.93;100526.66;5342181;26;20052;-86
2021/04/18 06:15:30;;;;;;;39.85;28.87;;;;;;;9.02;62.52;100517.19;5342043;26;20155;-86
2021/04/18 06:18:00;;;;;;;35.28;26.17;;;;;;;8.41;64.14;100517.81;5342176;26;20120;-86
2021/04/18 06:20:26;;;;;;;37.63;27.62;;;;;;;8.42;64.24;100514.34;5322111;26;20105;-86
2021/04/18 06:22:53;;;;;;;34.80;27.52;;;;;;;8.76;63.57;100517.97;5322312;26;20056;-87
2021/04/18 06:25:22;;;;;;;;;;;;;;;8.34;64.24;100516.88;5323087;26;20101;-86
2021/04/18 06:27:49;;;;;;;34.85;25.27;;;;;;;8.25;65.04;100521.22;5322527;26;20385;-87
2021/04/18 06:30:16;;;;;;;39.60;27.58;;;;;;;8.69;63.92;100524.06;5322122;26;20346;-86
2021/04/18 06:32:42;;;;;;;39.85;28.58;;;;;;;9.05;62.15;100522.41;5342249;26;20067;-87
2021/04/18 06:35:10;;;;;;;35.10;26.00;;;;;;;9.22;62.23;100520.72;5342073;26;20075;-86
2021/04/18 08:09:37;;;;;;;35.67;26.77;;;;;;;11.94;53.75;100480.22;5282744;26;20099;-81
2021/04/18 08:12:14;;;;;;;38.83;28.08;;;;;;;12.40;53.52;100474.47;5276256;27;20042;-84
2021/04/18 08:14:49;;;;;;;33.45;27.77;;;;;;;12.26;52.79;100483.41;5276469;27;20068;-85
2021/04/18 08:17:18;;;;;;;33.03;25.50;;;;;;;12.07;53.43;100479.22;5276279;27;20061;-85
2021/04/18 08:19:59;;;;;;;34.75;27.87;;;;;;;12.22;53.23;100488.72;5276287;27;20427;-85
2021/04/18 08:23:04;;;;;;;36.50;27.08;;;;;;;12.36;52.38;100483.31;5274797;27;20057;-85
2021/04/18 08:25:33;;;;;;;32.30;25.33;;;;;;;12.39;52.86;100484.13;5256673;27;20303;-84
2021/04/18 08:28:07;;;;;;;34.40;25.95;;;;;;;12.30;52.70;100489.53;5275934;27;20077;-85
2021/04/18 08:31:12;;;;;;;36.10;27.05;;;;;;;12.19;52.26;100480.84;5276193;27;20140;-84
2021/04/18 08:33:38;;;;;;;29.67;24.50;;;;;;;12.40;52.55;100490.28;5187541;27;20066;-85
2021/04/18 08:36:10;;;;;;;36.80;28.05;;;;;;;12.47;51.77;100482.28;5170574;27;20106;-84
2021/04/18 09:01:11;;;;;;;32.30;25.55;;;;;;;12.19;53.34;100487.00;5226295;27;20390;-86
2021/04/18 09:03:55;;;;;;;35.83;27.40;;;;;;;11.61;54.39;100484.87;5254903;27;20058;-86
2021/04/18 09:06:32;;;;;;;32.78;24.63;;;;;;;12.19;53.35;100478.22;5254975;27;20181;-87
2021/04/18 09:08:59;;;;;;;32.22;26.12;;;;;;;12.38;52.90;100478.88;5254911;27;20045;-86
2021/04/18 09:11:26;;;;;;;37.17;27.95;;;;;;;12.65;52.42;100480.31;5254909;27;20073;-85
2021/04/18 09:13:55;;;;;;;37.35;27.75;;;;;;;13.08;50.87;100477.94;5254609;27;20076;-86
2021/04/18 09:16:29;;;;;;;33.30;27.50;;;;;;;12.66;51.39;100477.63;5254935;27;20121;-87
2021/04/18 09:19:30;;;;;;;31.98;25.80;;;;;;;12.52;52.14;100473.44;5254847;27;20050;-86
2021/04/18 09:22:04;;;;;;;30.77;24.45;;;;;;;11.98;53.54;100481.97;5255120;27;20062;-86
2021/04/18 09:24:33;;;;;;;32.42;25.83;;;;;;;12.11;52.81;100477.44;5255159;27;20050;-86
2021/04/18 09:27:05;;;;;;;34.47;27.00;;;;;;;12.46;51.91;100474.37;5254806;27;20068;-86
2021/04/18 09:29:34;;;;;;;33.47;26.12;;;;;;;12.19;52.52;100486.12;5254888;27;20097;-86
2021/04/18 09:54:44;;;;;;;31.05;25.77;;;;;;;12.59;51.31;100473.34;5321600;26;20087;-85
2021/04/18 09:57:47;;;;;;;31.90;25.02;;;;;;;12.74;51.29;100469.66;5342340;26;20052;-85
2021/04/18 10:00:18;;;;;;;34.17;25.98;;;;;;;13.42;49.80;100473.94;5342414;26;20124;-85
2021/04/18 10:03:06;;;;;;;33.38;27.08;;;;;;;12.98;50.47;100467.56;5323099;26;20107;-85
2021/04/18 10:05:56;;;;;;;29.95;25.17;;;;;;;13.69;49.66;100470.84;5342656;26;20056;-84
2021/04/18 10:08:26;;;;;;;32.20;25.48;;;;;;;13.10;49.67;100472.66;5322262;26;20487;-85
2021/04/18 10:11:08;;;;;;;36.53;27.40;;;;;;;13.39;48.99;100472.22;5322641;26;20056;-85
2021/04/18 10:13:46;;;;;;;34.22;26.62;;;;;;;12.95;51.58;100460.56;5342108;26;20040;-84
2021/04/18 10:16:24;;;;;;;32.65;27.00;;;;;;;13.63;49.35;100457.75;5342414;26;20127;-84
2021/04/18 10:19:17;;;;;;;29.95;25.15;;;;;;;13.59;49.90;100462.22;5342191;26;20052;-84
2021/04/18 10:22:03;;;;;;;35.30;27.87;;;;;;;14.20;48.12;100454.91;5342075;26;20047;-84
2021/04/18 10:24:35;;;;;;;31.95;26.02;;;;;;;14.40;47.14;100449.22;5342279;26;20077;-84
2021/04/18 10:27:05;;;;;;;31.05;24.90;;;;;;;14.94;48.45;100451.63;5341952;26;20121;-84
2021/04/18 10:29:32;;;;;;;33.85;27.73;;;;;;;14.48;46.23;100454.37;5342090;26;20070;-84
2021/04/18 10:31:58;;;;;;;30.62;26.12;;;;;;;14.75;46.08;100451.16;5341870;26;20052;-84
2021/04/18 10:34:26;;;;;;;31.92;25.10;;;;;;;14.88;45.51;100443.81;5342062;26;20574;-84
2021/04/18 10:36:53;;;;;;;29.08;25.83;;;;;;;14.16;48.15;100449.72;5322192;26;20064;-84
2021/04/18 10:39:20;;;;;;;33.17;26.15;;;;;;;14.41;46.64;100442.16;5341954;26;20056;-84
2021/04/18 10:41:48;;;;;;;30.48;25.12;;;;;;;14.57;46.80;100445.41;5341801;26;20163;-84
2021/04/18 10:44:18;;;;;;;30.58;25.15;;;;;;;14.05;47.54;100447.28;5321982;26;20075;-84
2021/04/18 10:47:06;;;;;;;28.98;23.80;;;;;;;15.26;44.97;100433.22;5341833;26;20175;-84
2021/04/18 10:49:33;;;;;;;32.35;24.70;;;;;;;14.98;45.44;100439.19;5341823;26;20132;-84
2021/04/18 10:52:00;;;;;;;30.95;25.50;;;;;;;14.54;46.15;100444.56;5341793;26;20071;-84
2021/04/18 10:54:26;;;;;;;30.30;25.67;;;;;;;15.19;46.13;100427.22;5341807;26;20083;-84
2021/04/18 10:56:54;;;;;;;32.00;26.15;;;;;;;15.04;45.10;100431.09;5342002;26;20385;-84
2021/04/18 10:59:22;;;;;;;31.83;24.58;;;;;;;15.11;45.63;100430.03;5342029;26;20121;-84
2021/04/18 11:01:49;;;;;;;31.70;25.55;;;;;;;15.36;44.87;100426.81;5341656;26;20053;-84
2021/04/18 11:04:16;;;;;;;29.25;23.33;;;;;;;15.05;45.55;100424.88;5341942;26;20047;-84
2021/04/18 11:06:43;;;;;;;29.00;24.30;;;;;;;14.54;45.92;100419.91;5342126;26;20072;-84
2021/04/18 11:09:10;;;;;;;29.33;26.12;;;;;;;15.32;46.47;100419.84;5342903;26;20060;-83
2021/04/18 11:11:36;;;;;;;40.30;25.83;;;;;;;14.02;47.04;100436.78;5323054;26;20465;-84
2021/04/18 11:14:05;;;;;;;32.80;25.55;;;;;;;14.12;46.74;100432.19;5342629;26;20108;-84
2021/04/18 11:16:32;;;;;;;29.67;23.67;;;;;;;14.11;46.74;100433.94;5342802;26;20057;-84
2021/04/18 11:18:59;;;;;;;28.52;23.73;;;;;;;13.78;47.38;100428.41;5342526;26;20485;-84
2021/04/18 11:21:26;;;;;;;29.60;24.98;;;;;;;13.94;47.28;100425.47;5342857;26;20074;-85
2021/04/18 11:23:54;;;;;;;29.48;23.17;;;;;;;14.54;46.55;100417.25;5343231;26;20116;-84
2021/04/18 11:26:22;;;;;;;29.80;23.65;;;;;;;14.60;45.81;100417.13;5343426;26;20724;-85
2021/04/18 11:28:49;;;;;;;29.95;24.70;;;;;;;14.80;45.47;100414.03;5342921;26;20056;-84
2021/04/18 11:31:16;;;;;;;27.67;23.27;;;;;;;14.96;44.83;100425.97;5342965;26;20053;-84
2021/04/18 11:33:43;;;;;;;32.15;23.15;;;;;;;14.71;44.75;100416.87;5342643;26;20057;-84
2021/04/18 11:36:11;;;;;;;28.00;24.67;;;;;;;14.85;46.84;100422.69;5322717;26;20080;-84
2021/04/18 11:38:38;;;;;;;30.37;25.62;;;;;;;15.26;44.26;100418.22;5342459;26;20060;-85
2021/04/18 11:41:04;;;;;;;27.00;23.73;;;;;;;14.58;45.41;100418.91;5342798;26;20044;-85
2021/04/18 11:43:31;;;;;;;30.15;24.73;;;;;;;14.73;45.42;100415.06;5342522;26;20405;-84
2021/04/18 11:45:57;;;;;;;29.55;23.90;;;;;;;15.41;43.62;100419.59;5342770;26;20076;-85
2021/04/18 11:48:24;;;;;;;29.48;24.25;;;;;;;14.80;44.66;100424.59;5342411;26;20136;-85
2021/04/18 11:50:51;;;;;;;33.92;26.90;;;;;;;14.57;45.07;100413.69;5322174;26;20048;-84
2021/04/18 11:53:17;;;;;;;29.87;25.23;;;;;;;14.92;45.11;100415.53;5342137;26;20056;-84
2021/04/18 11:55:43;;;;;;;29.05;24.25;;;;;;;14.57;45.51;100417.19;5342411;26;20079;-85
2021/04/18 11:58:11;;;;;;;31.05;24.00;;;;;;;14.05;46.97;100426.16;5342498;26;20070;-84
2021/04/18 12:00:38;;;;;;;28.77;23.83;;;;;;;14.13;46.04;100423.37;5342339;26;20048;-84
2021/04/18 12:24:54;;;;;;;27.98;22.33;;;;;;;13.02;49.96;100454.28;5328372;26;20069;-84
2021/04/18 12:27:41;;;;;;;29.30;23.52;;;;;;;12.62;57.83;100459.28;5325325;26;20378;-87
2021/04/18 12:30:09;;;;;;;28.38;22.00;;;;;;;12.70;57.81;100454.75;5342359;26;20072;-87
2021/04/18 12:32:36;;;;;;;25.77;21.37;;;;;;;12.25;62.01;100447.41;5342255;26;20097;-87
2021/04/18 12:35:07;;;;;;;30.52;24.85;;;;;;;13.30;57.94;100446.84;5342216;26;20079;-87
2021/04/18 12:37:33;;;;;;;29.48;24.37;;;;;;;13.63;59.57;100447.19;5342418;26;20067;-85
2021/04/18 12:39:59;;;;;;;29.98;23.98;;;;;;;12.80;60.05;100447.59;5322184;26;20060;-87
2021/04/18 12:42:26;;;;;;;27.20;23.05;;;;;;;12.88;60.49;100441.31;5342484;26;20446;-86
2021/04/18 12:44:52;;;;;;;27.27;22.37;;;;;;;11.67;63.41;100453.25;5322032;26;20044;-87
2021/04/18 12:47:19;;;;;;;30.30;24.55;;;;;;;11.11;64.97;100460.72;5342658;26;20076;-87
2021/04/18 12:49:46;;;;;;;33.30;24.35;;;;;;;11.13;66.31;100466.84;5342186;26;20143;-86
2021/04/18 12:52:14;;;;;;;28.05;21.98;;;;;;;11.52;66.75;100462.16;5342471;26;20076;-86
2021/04/18 12:54:41;;;;;;;32.30;24.63;;;;;;;11.32;65.63;100458.81;5342167;26;20068;-86
2021/04/18 12:57:08;;;;;;;30.52;25.05;;;;;;;11.14;66.12;100457.19;5322429;26;20430;-85
2021/04/18 12:59:34;;;;;;;32.38;25.42;;;;;;;11.16;66.88;100451.94;5322480;26;20060;-86
2021/04/18 13:02:01;;;;;;;34.08;24.83;;;;;;;11.45;65.82;100451.72;5342387;26;20067;-85
2021/04/18 13:04:27;;;;;;;28.30;22.80;;;;;;;11.93;66.05;100447.75;5341924;26;20064;-85
2021/04/18 13:06:54;;;;;;;31.85;27.37;;;;;;;12.56;65.67;100448.78;5342638;26;20075;-85
2021/04/18 13:09:20;;;;;;;35.97;28.83;;;;;;;13.05;64.21;100443.69;5342301;26;20478;-86
2021/04/18 13:11:47;;;;;;;33.25;26.67;;;;;;;13.25;64.04;100448.69;5342438;26;20135;-83
2021/04/18 13:14:13;;;;;;;27.77;23.12;;;;;;;12.92;61.00;100447.41;5342036;26;20076;-83
2021/04/18 13:16:39;;;;;;;32.70;26.65;;;;;;;13.32;61.45;100454.72;5342011;26;20057;-84
2021/04/18 13:19:06;;;;;;;30.35;24.83;;;;;;;13.39;63.91;100451.13;5341910;26;20056;-83
2021/04/18 13:21:33;;;;;;;31.58;26.65;;;;;;;13.93;62.33;100444.88;5322086;26;20090;-83
2021/04/18 13:24:01;;;;;;;32.75;25.88;;;;;;;14.32;59.01;100451.16;5342021;26;20128;-83
2021/04/18 13:26:27;;;;;;;30.20;25.58;;;;;;;14.68;56.38;100441.63;5322232;26;20061;-83
2021/04/18 13:28:54;;;;;;;33.75;27.67;;;;;;;14.57;57.00;100448.03;5341575;26;20056;-83
2021/04/18 13:31:20;;;;;;;35.00;29.58;;;;;;;13.10;62.26;100446.25;5342118;26;20049;-83
2021/04/18 13:33:47;;;;;;;31.75;27.33;;;;;;;13.63;61.58;100452.47;5342032;26;20116;-83
2021/04/18 13:36:13;;;;;;;33.50;28.33;;;;;;;13.49;61.30;100457.09;5342165;26;20055;-83
2021/04/18 13:38:44;;;;;;;34.38;28.15;;;;;;;13.56;60.29;100448.16;5342038;26;20387;-84
2021/04/18 13:41:11;;;;;;;31.73;26.50;;;;;;;13.88;58.86;100444.94;5342079;26;20773;-83
2021/04/18 13:43:37;;;;;;;37.45;28.92;;;;;;;14.19;60.30;100441.75;5342215;26;20090;-84
2021/04/18 13:46:04;;;;;;;33.97;28.27;;;;;;;14.44;60.45;100447.37;5341957;26;20419;-84
2021/04/18 13:48:30;;;;;;;34.20;27.70;;;;;;;14.34;60.04;100446.72;5341943;26;20056;-84
2021/04/18 13:50:57;;;;;;;33.85;29.02;;;;;;;14.60;59.82;100447.97;5341990;26;20052;-84
2021/04/18 13:53:23;;;;;;;37.72;31.02;;;;;;;14.74;57.22;100446.78;5322095;26;20120;-83
2021/04/18 13:55:50;;;;;;;35.75;28.45;;;;;;;14.18;58.86;100451.44;5342031;26;20087;-83
2021/04/18 13:58:16;;;;;;;37.33;30.12;;;;;;;13.47;59.58;100450.97;5322253;26;20094;-83
2021/04/18 14:00:46;;;;;;;39.60;28.90;;;;;;;14.15;57.78;100445.31;5322424;26;20128;-82
2021/04/18 14:03:12;;;;;;;37.80;27.62;;;;;;;14.19;56.63;100441.75;5342158;26;20064;-83
2021/04/18 14:05:39;;;;;;;36.78;28.40;;;;;;;14.07;58.32;100443.72;5321886;26;20122;-83
2021/04/18 14:08:15;;;;;;;37.28;29.20;;;;;;;14.31;58.51;100439.72;5342130;26;20056;-83
2021/04/18 14:10:41;;;;;;;38.88;31.00;;;;;;;13.80;58.84;100445.12;5321957;26;20069;-82
2021/04/18 14:13:12;;;;;;;40.22;30.90;;;;;;;14.68;56.47;100436.34;5341665;26;20051;-82
2021/04/18 14:15:39;;;;;;;38.15;29.25;;;;;;;14.54;57.49;100433.13;5322129;26;20064;-82
2021/04/18 14:18:08;;;;;;;36.15;28.33;;;;;;;14.66;58.46;100434.63;5342354;26;20055;-83
2021/04/18 14:20:34;;;;;;;31.08;25.25;;;;;;;14.66;59.24;100431.97;5341722;26;20047;-83
2021/04/18 14:23:01;;;;;;;31.60;26.33;;;;;;;14.72;58.20;100431.84;5341823;26;20405;-83
2021/04/18 14:25:27;;;;;;;31.17;24.20;;;;;;;14.89;57.51;100427.03;5321751;26;20064;-83
2021/04/18 14:27:54;;;;;;;32.15;26.20;;;;;;;15.21;55.60;100422.78;5322134;26;20063;-83
2021/04/18 14:30:21;;;;;;;34.53;26.35;;;;;;;14.89;56.61;100426.19;5321808;26;20071;-84
2021/04/18 14:32:47;;;;;;;32.58;24.90;;;;;;;15.33;55.95;100425.09;5321893;26;20124;-83
2021/04/18 14:35:15;;;;;;;32.17;26.40;;;;;;;15.52;54.76;100427.28;5341860;26;20061;-83
2021/04/18 14:37:42;;;;;;;30.60;25.25;;;;;;;15.55;54.05;100425.41;5321749;26;20087;-83
2021/04/18 14:40:09;;;;;;;35.08;27.37;;;;;;;15.92;53.02;100424.50;5322037;26;20117;-84
2021/04/18 14:42:37;;;;;;;31.77;26.52;;;;;;;15.90;53.58;100426.31;5342876;26;20736;-83
2021/04/18 14:45:08;;;;;;;32.67;26.35;;;;;;;15.82;52.97;100425.62;5342779;26;20053;-84
2021/04/18 14:47:35;;;;;;;31.00;24.00;;;;;;;14.20;55.17;100436.41;5342660;26;20596;-83
2021/04/18 14:50:03;;;;;;;35.85;26.40;;;;;;;14.66;54.73;100422.25;5322742;26;20086;-84
2021/04/18 14:52:29;;;;;;;34.55;27.10;;;;;;;14.56;54.55;100427.78;5342810;26;20120;-83
2021/04/18 14:54:56;;;;;;;35.45;25.35;;;;;;;13.98;56.30;100432.47;5342561;26;20410;-84
2021/04/18 14:57:22;;;;;;;36.17;27.73;;;;;;;14.01;55.78;100430.63;5342498;26;20111;-83
2021/04/18 14:59:49;;;;;;;36.17;27.70;;;;;;;13.51;56.59;100434.19;5342759;26;20489;-83
2021/04/18 15:02:16;;;;;;;35.35;27.02;;;;;;;13.92;56.59;100435.22;5322843;26;20056;-83
2021/04/18 15:04:42;;;;;;;42.88;30.17;;;;;;;13.22;57.78;100434.66;5342477;26;20182;-83
2021/04/18 15:07:09;;;;;;;33.47;25.95;;;;;;;13.93;56.19;100424.63;5342586;26;20106;-84
2021/04/18 15:09:35;;;;;;;35.05;25.88;;;;;;;13.96;55.58;100428.97;5342743;26;20418;-83
2021/04/18 15:12:03;;;;;;;35.63;25.50;;;;;;;14.11;56.05;100426.03;5322575;26;20626;-83
2021/04/18 15:14:29;;;;;;;34.70;26.40;;;;;;;12.91;56.99;100425.44;5322501;26;20520;-83
2021/04/18 15:16:56;;;;;;;33.13;25.05;;;;;;;13.28;57.11;100435.44;5342455;26;20060;-83
2021/04/18 15:19:27;;;;;;;30.62;23.90;;;;;;;12.88;58.06;100430.78;5342636;26;20043;-84
2021/04/18 15:21:53;;;;;;;33.92;23.87;;;;;;;13.04;58.13;100435.81;5342655;26;20049;-84
2021/04/18 15:24:20;;;;;;;32.95;25.37;;;;;;;13.61;54.81;100444.56;5342092;26;20061;-83
2021/04/18 15:26:52;;;;;;;31.80;24.48;;;;;;;12.33;57.38;100442.06;5342427;26;20077;-83
2021/04/18 15:29:23;;;;;;;32.20;23.55;;;;;;;12.35;58.31;100436.75;5342622;26;20052;-86
2021/04/18 15:31:50;;;;;;;34.40;25.50;;;;;;;11.83;57.63;100441.69;5342723;26;20060;-86
2021/04/18 15:34:17;;;;;;;31.87;25.12;;;;;;;12.39;58.07;100447.25;5342614;26;20104;-84
2021/04/18 15:36:44;;;;;;;36.70;26.95;;;;;;;12.40;57.81;100442.84;5322695;26;20061;-83
2021/04/18 15:39:11;;;;;;;37.63;25.65;;;;;;;12.23;58.68;100450.94;5342292;26;20059;-85
2021/04/18 15:41:39;;;;;;;33.28;23.65;;;;;;;12.08;58.42;100451.13;5322747;26;20371;-85
2021/04/18 15:44:06;;;;;;;37.05;28.48;;;;;;;11.62;58.29;100451.53;5342436;26;20061;-86
2021/04/18 15:46:36;;;;;;;36.05;28.60;;;;;;;11.77;59.58;100451.44;5342647;26;20064;-85
2021/04/18 15:49:04;;;;;;;37.65;29.52;;;;;;;11.62;60.14;100454.19;5342734;26;20058;-86
2021/04/18 15:51:31;;;;;;;40.53;30.17;;;;;;;11.98;60.18;100455.62;5342293;26;20067;-85
2021/04/18 15:53:58;;;;;;;37.10;28.27;;;;;;;11.65;61.99;100464.69;5342462;26;20053;-85
2021/04/18 15:56:24;;;;;;;35.60;26.67;;;;;;;12.24;60.34;100455.34;5342308;26;20056;-86
2021/04/18 15:58:51;;;;;;;38.40;28.50;;;;;;;12.31;60.23;100449.09;5342629;26;20075;-86
2021/04/18 16:01:28;;;;;;;32.75;25.77;;;;;;;12.23;60.55;100454.44;5342621;26;20064;-86
2021/04/18 16:03:55;;;;;;;36.22;27.13;;;;;;;12.03;60.47;100459.97;5342724;26;20071;-86
2021/04/18 16:06:23;;;;;;;34.25;26.40;;;;;;;11.70;61.66;100449.72;5342487;26;20090;-85
2021/04/18 16:08:51;;;;;;;34.40;26.40;;;;;;;12.17;60.03;100457.16;5342201;26;20138;-86
2021/04/18 16:11:19;;;;;;;31.85;24.85;;;;;;;11.90;61.19;100460.09;5322479;26;20335;-85
2021/04/18 16:13:48;;;;;;;30.08;23.05;;;;;;;12.23;60.27;100462.34;5322662;26;20419;-85
2021/04/18 16:16:14;;;;;;;34.53;26.05;;;;;;;12.54;59.65;100469.91;5342372;26;20128;-85
2021/04/18 16:18:41;;;;;;;35.95;26.70;;;;;;;12.75;60.04;100467.87;5342636;26;20414;-85
2021/04/18 16:21:07;;;;;;;40.75;31.20;;;;;;;12.04;62.38;100476.63;5342378;26;20060;-85
2021/04/18 16:23:34;;;;;;;30.67;23.15;;;;;;;11.21;64.47;100487.84;5342297;26;20076;-84
2021/04/18 16:26:01;;;;;;;30.95;24.05;;;;;;;10.85;64.94;100494.19;5342613;26;20934;-85
2021/04/18 16:28:27;;;;;;;30.95;23.23;;;;;;;9.91;69.14;100502.38;5342564;26;20079;-85
2021/04/18 16:30:53;;;;;;;15.27;12.05;;;;;;;10.65;67.38;100497.81;5322654;26;20072;-84
2021/04/18 16:33:20;;;;;;;17.00;13.48;;;;;;;10.25;66.28;100502.28;5322382;26;20072;-85
2021/04/18 16:35:46;;;;;;;17.95;14.52;;;;;;;10.10;68.23;100494.47;5322460;26;20076;-85
2021/04/18 16:38:13;;;;;;;15.23;12.45;;;;;;;9.66;69.33;100512.00;5322654;26;20062;-85
2021/04/18 16:40:39;;;;;;;16.33;13.13;;;;;;;9.72;69.05;100512.00;5342679;26;20074;-84
2021/04/18 16:43:05;;;;;;;17.87;14.02;;;;;;;10.06;68.76;100505.81;5342602;26;20060;-84
2021/04/18 16:45:31;;;;;;;17.48;13.62;;;;;;;10.13;68.76;100508.44;5342319;26;20061;-85
2021/04/18 16:47:58;;;;;;;17.20;14.00;;;;;;;9.99;70.08;100521.59;5342455;26;20049;-84
2021/04/18 16:50:25;;;;;;;18.00;13.52;;;;;;;10.53;68.22;100512.72;5342572;26;20052;-85
2021/04/18 16:52:54;;;;;;;19.90;14.07;;;;;;;10.72;66.78;100509.16;5322412;26;20080;-85
2021/04/18 16:55:21;;;;;;;19.57;14.63;;;;;;;11.36;65.53;100506.16;5342598;26;20074;-85
2021/04/18 16:57:48;;;;;;;20.23;15.27;;;;;;;10.95;66.79;100514.31;5342365;26;20048;-85
2021/04/18 17:00:15;;;;;;;16.25;11.88;;;;;;;11.23;66.95;100508.88;5342453;26;20071;-85
2021/04/18 17:02:41;;;;;;;14.45;12.37;;;;;;;11.36;65.77;100513.16;5342443;26;20075;-85
2021/04/18 17:05:28;;;;;;;15.90;13.43;;;;;;;11.55;64.79;100509.50;5325537;26;20064;-85
2021/04/18 17:07:55;;;;;;;16.73;12.82;;;;;;;11.54;65.11;100513.03;5342518;26;20063;-85
2021/04/18 17:10:21;;;;;;;15.95;11.93;;;;;;;11.41;66.09;100516.62;5342193;26;20104;-84
2021/04/18 17:12:48;;;;;;;17.50;14.07;;;;;;;11.58;64.80;100521.75;5342426;26;20112;-85
2021/04/18 17:15:14;;;;;;;15.68;12.73;;;;;;;11.52;65.31;100524.44;5342701;26;20366;-85
2021/04/18 17:17:42;;;;;;;18.80;14.60;;;;;;;11.39;65.44;100523.66;5322348;26;20056;-85
2021/04/18 17:20:14;;;;;;;15.82;13.07;;;;;;;10.86;67.24;100525.75;5322805;26;20063;-85
2021/04/18 17:22:41;;;;;;;16.27;13.75;;;;;;;11.46;65.04;100528.00;5342223;26;20060;-85
2021/04/18 17:25:09;;;;;;;14.85;12.65;;;;;;;11.35;65.73;100527.19;5341926;26;20383;-85
2021/04/18 17:27:37;;;;;;;16.70;13.20;;;;;;;11.50;64.99;100527.09;5342439;26;20638;-85
2021/04/18 17:30:05;;;;;;;15.60;13.30;;;;;;;11.59;64.92;100528.78;5342515;26;20355;-84
2021/04/18 17:32:32;;;;;;;18.45;13.68;;;;;;;11.92;64.24;100538.19;5322487;26;20079;-85
2021/04/18 17:34:59;;;;;;;13.68;11.68;;;;;;;12.09;63.42;100540.66;5342518;26;20127;-85
2021/04/18 17:37:25;;;;;;;15.38;12.45;;;;;;;12.30;63.20;100529.03;5322605;26;20056;-85
2021/04/18 17:39:51;;;;;;;14.32;12.05;;;;;;;12.34;62.48;100537.78;5342661;26;20481;-84
2021/04/18 17:42:18;;;;;;;12.40;10.48;;;;;;;12.41;62.15;100536.81;5342184;26;20419;-85
2021/04/18 17:44:44;;;;;;;16.62;13.77;;;;;;;12.66;60.97;100547.94;5342516;26;20194;-85
2021/04/18 17:47:11;;;;;;;18.70;16.00;;;;;;;12.70;60.67;100545.25;5342237;26;20233;-85
2021/04/18 17:49:37;;;;;;;17.58;14.30;;;;;;;12.55;63.15;100544.56;5342604;26;20418;-85
2021/04/18 17:52:04;;;;;;;16.67;13.55;;;;;;;12.74;62.76;100548.75;5342294;26;20120;-85
2021/04/18 17:54:30;;;;;;;16.92;14.25;;;;;;;12.89;62.02;100551.19;5342165;26;20125;-85
2021/04/18 17:56:57;;;;;;;16.25;13.18;;;;;;;12.86;61.30;100545.06;5342244;26;20083;-85
2021/04/18 17:59:23;;;;;;;15.80;14.10;;;;;;;12.98;60.95;100551.94;5342177;26;20110;-85
2021/04/18 18:01:50;;;;;;;15.65;12.73;;;;;;;13.05;60.59;100549.19;5342339;26;20115;-85
2021/04/18 18:04:17;;;;;;;17.77;15.55;;;;;;;13.16;60.19;100552.56;5342272;26;20124;-86
2021/04/18 18:06:44;;;;;;;16.48;13.93;;;;;;;13.15;60.24;100552.59;5342258;26;20053;-85
2021/04/18 18:09:10;;;;;;;16.15;13.65;;;;;;;13.16;59.78;100552.56;5342213;26;20076;-85
2021/04/18 18:11:36;;;;;;;21.58;17.27;;;;;;;13.34;59.26;100550.59;5342048;26;20387;-85
2021/04/18 18:14:03;;;;;;;20.88;17.70;;;;;;;13.50;59.12;100556.50;5322228;26;20107;-85
2021/04/18 18:16:29;;;;;;;15.10;12.25;;;;;;;13.40;59.53;100551.38;5341984;26;20053;-85
2021/04/18 18:18:56;;;;;;;22.17;17.50;;;;;;;13.12;59.96;100555.28;5342026;26;20056;-85
2021/04/18 18:21:22;;;;;;;33.60;24.98;;;;;;;12.94;59.87;100557.28;5322356;26;20065;-85
2021/04/18 18:23:49;;;;;;;32.70;24.63;;;;;;;12.96;58.92;100554.59;5342018;26;20060;-85
2021/04/18 18:26:15;;;;;;;29.45;21.58;;;;;;;12.91;59.46;100554.69;5342266;26;20053;-85
2021/04/18 18:28:42;;;;;;;27.83;20.62;;;;;;;12.81;61.23;100553.03;5341985;26;20330;-85
2021/04/18 18:31:09;;;;;;;23.73;17.92;;;;;;;12.84;60.89;100553.00;5342259;26;20051;-85
2021/04/18 18:33:35;;;;;;;18.35;15.05;;;;;;;13.03;59.89;100555.37;5322157;26;20078;-85
2021/04/18 18:36:03;;;;;;;17.23;14.13;;;;;;;12.96;60.03;100555.47;5342214;26;20082;-86
2021/04/18 18:38:29;;;;;;;18.70;15.27;;;;;;;12.99;59.40;100559.81;5322200;26;20072;-85
2021/04/18 18:40:55;;;;;;;15.80;14.05;;;;;;;12.90;59.99;100559.94;5322038;26;20124;-85
2021/04/18 18:43:22;;;;;;;16.42;13.77;;;;;;;12.87;60.93;100547.66;5342137;26;20104;-85
2021/04/18 18:45:52;;;;;;;15.73;13.00;;;;;;;12.89;60.95;100548.53;5342095;26;20193;-85
2021/04/18 18:48:19;;;;;;;15.70;13.85;;;;;;;13.03;59.91;100555.37;5321641;26;20045;-85
2021/04/18 18:50:45;;;;;;;15.68;13.85;;;;;;;13.09;59.80;100555.31;5341978;26;20070;-86